Time;durP1;ratioP1;P1;durP2;ratioP2;P2;SDS_P1;SDS_P2;PMS_P1;PMS_P2;Temp;Humidity;BMP_temperature;BMP_pressure;BME280_temperature;BME280_humidity;BME280_pressure;Samples;Min_cycle;Max_cycle;Signal;HPM_P1;HPM_P2
2024/03/27 00:00:38;;;;;;;6.25;3.15;;;;;;;15.92;47.75;98580.03;4943372;28;97166;-88
2024/03/27 00:03:04;;;;;;;10.95;3.15;;;;;;;15.91;48.19;98573.06;4949458;28;96877;-88
2024/03/27 00:05:34;;;;;;;7.10;3.42;;;;;;;15.90;48.34;98563.50;4939997;28;100715;-87
2024/03/27 00:07:59;;;;;;;12.77;3.30;;;;;;;15.88;48.19;98564.47;4953065;28;97957;-89
2024/03/27 00:10:25;;;;;;;7.82;3.25;;;;;;;15.86;48.19;98568.94;4940366;28;97461;-88
2024/03/27 00:12:51;;;;;;;7.40;2.80;;;;;;;15.83;48.42;98563.81;4952010;28;96805;-88
2024/03/27 00:15:16;;;;;;;6.47;3.20;;;;;;;15.81;48.61;98563.91;4953080;28;100434;-88
2024/03/27 00:17:42;;;;;;;8.70;3.00;;;;;;;15.79;48.60;98563.09;4955809;28;97780;-88
2024/03/27 00:20:08;;;;;;;6.88;2.90;;;;;;;15.78;49.00;98561.41;4948717;28;96877;-88
2024/03/27 00:22:33;;;;;;;6.95;2.42;;;;;;;15.78;49.00;98561.41;4936249;28;96986;-88
2024/03/27 00:24:59;;;;;;;7.95;2.90;;;;;;;15.78;49.03;98564.88;4952200;28;100504;-88
2024/03/27 00:27:24;;;;;;;8.90;3.08;;;;;;;15.77;49.18;98557.94;4955004;28;100170;-88
2024/03/27 00:29:50;;;;;;;6.97;2.95;;;;;;;15.77;49.05;98557.06;4955134;28;96864;-89
2024/03/27 00:32:16;;;;;;;9.10;2.97;;;;;;;15.77;49.41;98554.44;4951045;28;97097;-88
2024/03/27 00:34:41;;;;;;;7.85;3.20;;;;;;;15.75;49.49;98544.00;4949056;28;100358;-88
2024/03/27 00:37:07;;;;;;;9.35;3.47;;;;;;;15.74;49.49;98547.56;4949680;28;99974;-89
2024/03/27 00:39:33;;;;;;;6.25;3.25;;;;;;;15.72;49.38;98548.50;4954736;28;96873;-88
2024/03/27 00:41:59;;;;;;;7.28;3.15;;;;;;;15.70;49.49;98540.69;4948657;28;97394;-88
2024/03/27 00:44:25;;;;;;;8.32;3.03;;;;;;;15.67;49.56;98551.34;4930548;28;100845;-87
2024/03/27 00:46:50;;;;;;;10.32;3.50;;;;;;;15.65;49.68;98541.81;4950670;28;100195;-88
2024/03/27 00:49:16;;;;;;;10.30;3.70;;;;;;;15.63;49.67;98539.25;4947033;28;98326;-88
2024/03/27 00:51:41;;;;;;;8.48;3.17;;;;;;;15.63;49.69;98533.16;4948632;28;96967;-88
2024/03/27 00:54:06;;;;;;;11.57;3.47;;;;;;;15.61;50.12;98536.72;4937686;28;99932;-88
2024/03/27 00:56:32;;;;;;;8.48;3.63;;;;;;;15.61;49.74;98535.84;4950610;28;100743;-88
2024/03/27 00:58:58;;;;;;;10.63;3.17;;;;;;;15.59;49.92;98537.69;4948955;28;97306;-88
2024/03/27 01:01:23;;;;;;;7.57;3.65;;;;;;;15.59;49.82;98533.28;4950013;28;96973;-88
2024/03/27 01:03:49;;;;;;;7.47;2.95;;;;;;;15.59;49.92;98532.44;4952082;28;100489;-88
2024/03/27 01:06:14;;;;;;;10.40;2.97;;;;;;;15.58;49.94;98531.59;4935906;28;102615;-88
2024/03/27 01:08:39;;;;;;;9.82;3.47;;;;;;;15.58;49.98;98526.34;4938022;28;97499;-88
2024/03/27 01:11:05;;;;;;;12.27;3.60;;;;;;;15.57;50.09;98532.50;4951090;28;96933;-88
2024/03/27 01:13:30;;;;;;;7.55;2.90;;;;;;;15.55;50.06;98520.38;4936963;28;100348;-88
2024/03/27 01:15:56;;;;;;;10.07;3.83;;;;;;;15.55;50.10;98518.59;4948109;28;100245;-88
2024/03/27 01:18:21;;;;;;;9.90;3.40;;;;;;;15.57;50.08;98521.16;4951847;28;97360;-88
2024/03/27 01:20:46;;;;;;;5.85;2.95;;;;;;;15.56;49.88;98511.56;4953008;28;96871;-88
2024/03/27 01:23:12;;;;;;;7.35;2.90;;;;;;;15.55;50.03;98509.88;4949450;28;100194;-88
2024/03/27 01:25:38;;;;;;;13.70;3.17;;;;;;;15.55;49.93;98515.13;4954321;28;100489;-88
2024/03/27 01:28:05;;;;;;;7.78;3.08;;;;;;;15.53;49.97;98516.97;4948029;28;96986;-88
2024/03/27 01:30:30;;;;;;;8.70;3.30;;;;;;;15.51;49.89;98513.56;4956749;28;96852;-89
2024/03/27 01:32:57;;;;;;;12.43;3.45;;;;;;;15.49;49.92;98512.75;4957477;28;97985;-87
2024/03/27 01:35:22;;;;;;;8.65;3.13;;;;;;;15.47;49.75;98511.97;4954200;28;99776;-87
2024/03/27 01:37:48;;;;;;;11.07;3.92;;;;;;;15.43;49.80;98504.22;4954574;28;97276;-89
2024/03/27 01:40:14;;;;;;;10.02;3.83;;;;;;;15.42;49.93;98509.56;4937764;28;96853;-89
2024/03/27 01:42:39;;;;;;;11.35;3.67;;;;;;;15.38;49.78;98500.97;4960823;28;97628;-88
2024/03/27 01:45:05;;;;;;;9.52;3.65;;;;;;;15.37;49.93;98501.88;4936480;28;100057;-88
2024/03/27 01:47:31;;;;;;;7.63;3.97;;;;;;;15.35;50.03;98497.63;4941440;28;97059;-88
2024/03/27 01:49:58;;;;;;;9.95;4.22;;;;;;;15.33;49.83;98489.81;4953500;28;96965;-88
2024/03/27 01:52:24;;;;;;;9.45;3.40;;;;;;;15.32;50.22;98488.09;4937933;28;100715;-88
2024/03/27 01:54:51;;;;;;;7.63;3.47;;;;;;;15.30;49.61;98478.59;4942007;28;100336;-88
2024/03/27 01:57:17;;;;;;;10.48;3.92;;;;;;;15.28;49.62;98480.44;4957098;28;96815;-88
2024/03/27 01:59:43;;;;;;;8.27;3.58;;;;;;;15.25;49.93;98476.16;4937683;28;96959;-88
2024/03/27 02:02:11;;;;;;;9.90;3.58;;;;;;;15.24;50.01;98477.09;4961977;28;100313;-88
2024/03/27 02:04:36;;;;;;;8.30;3.83;;;;;;;15.21;49.91;98480.69;4956736;28;97607;-88
2024/03/27 02:07:02;;;;;;;7.32;3.83;;;;;;;15.20;49.88;98483.38;4962203;28;96995;-88
2024/03/27 02:09:28;;;;;;;9.45;3.95;;;;;;;15.17;49.89;98465.16;4953180;28;97159;-88
2024/03/27 02:11:54;;;;;;;10.70;3.95;;;;;;;15.14;49.89;98458.25;4954871;28;100704;-87
2024/03/27 02:14:20;;;;;;;8.85;4.00;;;;;;;15.12;49.42;98459.25;4952957;28;97528;-88
2024/03/27 02:16:45;;;;;;;9.98;3.83;;;;;;;15.10;49.97;98453.19;4951977;28;96835;-88
2024/03/27 02:19:11;;;;;;;8.25;3.30;;;;;;;15.08;50.00;98457.66;4957038;28;96881;-88
2024/03/27 02:21:37;;;;;;;11.35;4.10;;;;;;;15.03;49.85;98450.84;4939176;28;100399;-88
2024/03/27 02:24:13;;;;;;;6.95;3.83;;;;;;;15.02;49.75;98449.13;4954190;28;100570;-88
2024/03/27 02:26:41;;;;;;;6.97;3.50;;;;;;;15.00;49.87;98450.13;4952734;28;96842;-88
2024/03/27 02:29:06;;;;;;;8.82;3.90;;;;;;;14.98;49.84;98451.97;4952710;28;97046;-88
2024/03/27 02:31:32;;;;;;;10.60;3.97;;;;;;;14.96;49.90;98452.03;4957012;28;101051;-88
2024/03/27 02:33:57;;;;;;;9.50;4.30;;;;;;;14.95;49.85;98452.09;4943967;28;100255;-88
2024/03/27 02:36:23;;;;;;;8.25;4.25;;;;;;;14.93;49.70;98448.69;4960684;28;96872;-88
2024/03/27 02:38:48;;;;;;;8.90;4.07;;;;;;;14.90;49.61;98444.44;4935406;28;96991;-85
2024/03/27 02:41:14;;;;;;;9.80;4.13;;;;;;;14.87;49.63;98441.09;4929383;28;100798;-85
2024/03/27 02:43:39;;;;;;;9.82;3.95;;;;;;;14.83;49.52;98442.97;4947043;28;97714;-85
2024/03/27 02:46:05;;;;;;;10.70;4.13;;;;;;;14.79;49.58;98446.66;4933173;28;97240;-85
2024/03/27 02:48:30;;;;;;;9.43;4.45;;;;;;;14.75;49.54;98442.47;4931319;28;96978;-85
2024/03/27 02:50:56;;;;;;;8.63;3.70;;;;;;;14.73;49.51;98442.53;4945301;28;97712;-85
2024/03/27 02:53:21;;;;;;;7.43;3.60;;;;;;;14.72;49.44;98447.84;4965601;28;100137;-85
2024/03/27 02:55:53;;;;;;;11.25;4.00;;;;;;;14.68;49.53;98443.66;4947385;28;96821;-85
2024/03/27 02:58:19;;;;;;;10.68;4.55;;;;;;;14.68;49.64;98441.03;4945616;28;96801;-84
2024/03/27 03:00:45;;;;;;;7.93;4.05;;;;;;;14.64;49.54;98438.53;4948357;28;100439;-84
2024/03/27 03:03:14;;;;;;;9.10;3.72;;;;;;;14.61;49.51;98436.03;4947348;28;97759;-84
2024/03/27 03:05:41;;;;;;;9.65;4.40;;;;;;;14.58;49.43;98428.31;4948177;28;96925;-84
2024/03/27 03:08:06;;;;;;;9.50;4.53;;;;;;;14.56;49.46;98435.38;4932949;28;97023;-84
2024/03/27 03:10:32;;;;;;;9.27;4.65;;;;;;;14.52;49.43;98433.78;4946505;28;100780;-84
2024/03/27 03:12:58;;;;;;;8.60;4.25;;;;;;;14.49;49.39;98431.25;4946596;28;100146;-84
2024/03/27 03:15:23;;;;;;;8.70;4.30;;;;;;;14.45;49.61;98432.31;4930392;28;97212;-84
2024/03/27 03:17:49;;;;;;;8.45;4.13;;;;;;;14.43;49.64;98434.16;4949334;28;96863;-85
2024/03/27 03:20:14;;;;;;;8.60;4.05;;;;;;;14.41;49.65;98431.59;4945571;28;98047;-84
2024/03/27 03:22:40;;;;;;;10.52;4.40;;;;;;;14.40;49.72;98439.53;4945230;28;97729;-85
2024/03/27 03:25:06;;;;;;;8.95;4.07;;;;;;;14.37;49.65;98429.19;4943243;28;96958;-85
2024/03/27 03:27:32;;;;;;;10.57;4.60;;;;;;;14.33;49.50;98438.06;4931399;28;96877;-85
2024/03/27 03:29:57;;;;;;;11.20;4.50;;;;;;;14.29;49.82;98445.22;4950231;28;97703;-85
2024/03/27 03:32:23;;;;;;;7.70;4.40;;;;;;;14.24;49.62;98448.03;4945871;28;100590;-84
2024/03/27 03:34:48;;;;;;;7.40;4.25;;;;;;;14.21;49.87;98439.44;4932787;28;96895;-85
2024/03/27 03:37:14;;;;;;;8.50;4.60;;;;;;;14.18;49.82;98447.44;4946712;28;96853;-84
2024/03/27 03:39:39;;;;;;;9.57;4.22;;;;;;;14.15;50.05;98443.13;4931570;28;99946;-85
2024/03/27 03:42:04;;;;;;;10.38;4.05;;;;;;;14.14;50.09;98454.56;4936229;28;99860;-84
2024/03/27 03:44:30;;;;;;;12.15;4.50;;;;;;;14.13;50.07;98458.09;4947630;28;96866;-85
2024/03/27 03:46:55;;;;;;;9.52;4.03;;;;;;;14.13;50.18;98457.25;4930895;28;96915;-85
2024/03/27 03:49:21;;;;;;;9.45;4.05;;;;;;;14.12;50.38;98453.78;4946782;28;97710;-85
2024/03/27 03:51:46;;;;;;;8.75;4.22;;;;;;;14.11;50.39;98462.53;4943770;28;100211;-85
2024/03/27 03:54:12;;;;;;;9.55;4.18;;;;;;;14.11;50.50;98465.16;4934463;28;97250;-84
2024/03/27 03:56:37;;;;;;;9.32;4.05;;;;;;;14.11;50.35;98459.06;4944843;28;96982;-85
2024/03/27 03:59:03;;;;;;;8.70;4.43;;;;;;;14.07;50.63;98463.59;4941873;28;100397;-85
2024/03/27 04:01:28;;;;;;;10.98;4.90;;;;;;;14.04;50.56;98459.31;4932151;28;100917;-84
2024/03/27 04:03:54;;;;;;;8.77;4.25;;;;;;;14.03;50.77;98457.63;4933891;28;97470;-85
2024/03/27 04:06:19;;;;;;;9.75;3.90;;;;;;;14.02;50.62;98452.44;4934711;28;97001;-85
2024/03/27 04:08:44;;;;;;;9.48;4.15;;;;;;;14.02;50.56;98444.56;4948467;28;97566;-85
2024/03/27 04:11:10;;;;;;;10.95;4.40;;;;;;;14.01;50.71;98442.84;4945567;28;97871;-85
2024/03/27 04:13:35;;;;;;;9.77;3.75;;;;;;;14.01;50.88;98437.59;4931456;28;96955;-85
2024/03/27 04:16:01;;;;;;;11.75;4.15;;;;;;;14.02;50.69;98434.09;4945549;28;97155;-85
2024/03/27 04:18:27;;;;;;;9.40;4.15;;;;;;;14.02;50.95;98428.84;4926247;28;100632;-85
2024/03/27 04:20:54;;;;;;;7.32;4.00;;;;;;;14.03;50.92;98422.69;4932302;28;100370;-85
2024/03/27 04:23:20;;;;;;;11.70;4.43;;;;;;;14.02;50.98;98413.97;4931461;28;97340;-84
2024/03/27 04:25:50;;;;;;;9.77;3.92;;;;;;;14.01;51.05;98406.16;4946098;28;97030;-84
2024/03/27 04:28:16;;;;;;;8.65;4.13;;;;;;;14.00;51.07;98401.84;4943467;28;97651;-84
2024/03/27 04:30:42;;;;;;;8.15;3.92;;;;;;;14.00;51.24;98405.31;4932472;28;100341;-84
2024/03/27 04:33:09;;;;;;;8.52;3.85;;;;;;;14.00;51.23;98404.47;4928198;28;97044;-84
2024/03/27 04:35:35;;;;;;;6.50;3.97;;;;;;;13.99;51.35;98406.25;4931752;28;97273;-85
2024/03/27 04:38:00;;;;;;;9.02;3.50;;;;;;;14.01;51.46;98407.03;4944162;28;97951;-85
2024/03/27 04:40:26;;;;;;;7.45;3.20;;;;;;;14.02;51.58;98397.38;4945611;28;97836;-84
2024/03/27 04:42:51;;;;;;;8.82;3.70;;;;;;;14.03;51.77;98404.34;4942892;28;96876;-85
2024/03/27 04:45:17;;;;;;;6.93;3.45;;;;;;;14.04;51.72;98411.28;4929218;28;97329;-84
2024/03/27 04:47:42;;;;;;;10.48;3.63;;;;;;;14.05;51.68;98411.22;4945991;28;100906;-84
2024/03/27 04:50:08;;;;;;;7.15;3.42;;;;;;;14.04;51.90;98414.75;4943159;28;97464;-84
2024/03/27 04:52:35;;;;;;;7.07;3.33;;;;;;;14.05;51.72;98413.84;4944601;28;97010;-84
2024/03/27 04:55:00;;;;;;;6.95;3.13;;;;;;;14.08;51.91;98412.84;4944164;28;97817;-84
2024/03/27 04:57:26;;;;;;;6.57;2.95;;;;;;;14.09;52.04;98417.19;4947232;28;98022;-84
2024/03/27 04:59:51;;;;;;;7.53;3.15;;;;;;;14.09;51.87;98418.03;4932509;28;100702;-84
2024/03/27 05:02:17;;;;;;;6.43;3.10;;;;;;;14.09;52.26;98415.41;4947904;28;96889;-85
2024/03/27 05:04:42;;;;;;;5.40;2.83;;;;;;;14.10;52.19;98416.28;4933792;28;96919;-84
2024/03/27 05:07:07;;;;;;;5.57;3.13;;;;;;;14.11;52.10;98427.63;4932894;28;100689;-84
2024/03/27 05:09:34;;;;;;;5.40;2.92;;;;;;;14.10;52.28;98429.41;4939277;28;100366;-85
2024/03/27 05:12:01;;;;;;;9.88;3.10;;;;;;;14.11;52.20;98438.94;4946025;28;97003;-85
2024/03/27 05:14:26;;;;;;;4.53;2.65;;;;;;;14.12;52.26;98451.16;4951944;28;97188;-84
2024/03/27 05:16:52;;;;;;;7.53;2.45;;;;;;;14.15;52.42;98455.41;4929920;28;100274;-85
2024/03/27 05:19:17;;;;;;;7.22;3.15;;;;;;;14.15;52.44;98458.03;4950373;28;100366;-84
2024/03/27 05:21:43;;;;;;;7.18;2.83;;;;;;;14.13;52.61;98457.25;4931001;28;96862;-85
2024/03/27 05:24:09;;;;;;;4.88;2.90;;;;;;;14.12;52.48;98472.13;4947633;28;97298;-84
2024/03/27 05:26:35;;;;;;;7.25;3.20;;;;;;;14.13;52.56;98480.84;4951033;28;97692;-85
2024/03/27 05:29:00;;;;;;;5.53;3.05;;;;;;;14.14;52.66;98490.41;4932661;28;100385;-84
2024/03/27 05:31:26;;;;;;;8.55;4.05;;;;;;;14.15;52.83;98487.72;4967902;28;97255;-85
2024/03/27 05:33:51;;;;;;;6.50;3.50;;;;;;;14.15;52.95;98489.47;4934582;28;96889;-85
2024/03/27 05:36:16;;;;;;;10.18;3.65;;;;;;;14.13;52.90;98505.28;4934057;28;100471;-85
2024/03/27 05:38:42;;;;;;;7.30;3.70;;;;;;;14.12;52.92;98513.19;4946040;28;97703;-85
2024/03/27 05:41:07;;;;;;;8.65;4.47;;;;;;;14.08;53.02;98520.31;4946809;28;96940;-84
2024/03/27 05:43:33;;;;;;;9.25;4.43;;;;;;;14.04;52.95;98521.38;4930179;28;97547;-85
2024/03/27 05:45:59;;;;;;;8.75;4.72;;;;;;;13.98;52.89;98532.94;4942966;28;100446;-84
2024/03/27 05:48:24;;;;;;;10.32;4.20;;;;;;;13.93;52.71;98540.13;4948494;28;100248;-85
2024/03/27 05:50:53;;;;;;;8.70;5.15;;;;;;;13.88;53.00;98535.03;4932732;28;96836;-84
2024/03/27 05:53:19;;;;;;;10.88;4.97;;;;;;;13.84;52.88;98530.84;4948098;28;98008;-84
2024/03/27 05:55:56;;;;;;;8.55;4.53;;;;;;;13.77;52.77;98528.53;4932626;28;100078;-85
2024/03/27 05:58:21;;;;;;;10.70;5.30;;;;;;;13.73;52.77;98529.56;4947753;28;97579;-85
2024/03/27 06:00:47;;;;;;;12.13;5.78;;;;;;;13.68;52.79;98540.19;4944526;28;96933;-84
2024/03/27 06:03:12;;;;;;;13.63;6.32;;;;;;;13.61;52.73;98542.16;4927852;28;96992;-85
2024/03/27 06:05:38;;;;;;;11.50;6.05;;;;;;;13.55;52.94;98545.03;4948096;28;100502;-83
2024/03/27 06:08:05;;;;;;;11.18;5.60;;;;;;;13.49;52.66;98543.50;4946188;28;100381;-84
2024/03/27 06:10:31;;;;;;;13.05;6.75;;;;;;;13.45;52.89;98554.97;4930005;28;97087;-85
2024/03/27 06:12:59;;;;;;;14.02;6.68;;;;;;;13.44;52.95;98560.25;4940491;28;96801;-84
2024/03/27 06:15:25;;;;;;;13.23;6.72;;;;;;;13.42;53.19;98560.34;4949359;28;100698;-85
2024/03/27 06:17:53;;;;;;;12.27;6.63;;;;;;;13.40;53.06;98569.13;4944526;28;97771;-85
2024/03/27 06:20:19;;;;;;;13.88;6.18;;;;;;;13.39;53.04;98578.78;4948975;28;97460;-90
2024/03/27 06:22:44;;;;;;;14.38;6.40;;;;;;;13.38;53.19;98584.06;4958161;28;96990;-90
2024/03/27 06:25:10;;;;;;;13.32;6.60;;;;;;;13.36;53.15;98578.03;4952957;28;100153;-89
2024/03/27 06:27:35;;;;;;;12.65;6.13;;;;;;;13.32;53.39;98574.66;4944851;28;100120;-90
2024/03/27 06:30:01;;;;;;;13.30;5.45;;;;;;;13.29;53.39;98577.34;4941061;28;97082;-90
2024/03/27 06:32:26;;;;;;;13.18;6.03;;;;;;;13.27;53.14;98580.00;4950403;28;96842;-86
2024/03/27 06:34:52;;;;;;;13.43;6.03;;;;;;;13.27;53.15;98592.25;4927666;28;99827;-85
2024/03/27 06:37:18;;;;;;;12.93;6.03;;;;;;;13.22;53.27;98607.25;4949180;28;100684;-85
2024/03/27 06:39:43;;;;;;;14.50;6.30;;;;;;;13.17;53.48;98575.16;4950973;28;96894;-84
2024/03/27 06:42:09;;;;;;;14.38;7.60;;;;;;;13.13;53.65;98567.38;4950011;28;96870;-85
2024/03/27 06:44:35;;;;;;;12.45;6.45;;;;;;;13.12;53.76;98570.94;4934591;28;100031;-86
2024/03/27 06:47:00;;;;;;;20.45;7.15;;;;;;;13.11;53.79;98582.28;4945225;28;100234;-86
2024/03/27 06:49:32;;;;;;;15.55;7.43;;;;;;;13.09;53.76;98583.25;4933159;28;96976;-85
2024/03/27 06:51:59;;;;;;;18.25;7.80;;;;;;;13.06;54.05;98583.34;4928623;28;96920;-85
2024/03/27 06:54:25;;;;;;;16.77;7.88;;;;;;;13.05;54.27;98607.84;4943501;28;98133;-85
2024/03/27 06:56:51;;;;;;;17.65;8.23;;;;;;;13.05;54.31;98598.22;4931236;28;100085;-86
2024/03/27 06:59:16;;;;;;;21.17;9.18;;;;;;;13.05;54.58;98602.59;4932574;28;96948;-86
2024/03/27 07:01:42;;;;;;;18.83;10.20;;;;;;;13.04;54.68;98600.88;4945395;28;96877;-85
2024/03/27 07:04:07;;;;;;;20.23;9.93;;;;;;;13.04;54.91;98606.97;4948051;28;99331;-85
2024/03/27 07:06:33;;;;;;;22.98;10.98;;;;;;;13.06;54.74;98607.75;4945678;28;96833;-85
2024/03/27 07:08:58;;;;;;;20.77;9.38;;;;;;;13.04;54.96;98612.19;4948429;28;98079;-85
2024/03/27 07:11:24;;;;;;;19.38;9.80;;;;;;;13.03;54.92;98609.63;4931255;28;96903;-85
2024/03/27 07:13:49;;;;;;;21.48;9.48;;;;;;;13.01;54.80;98612.31;4948860;28;98017;-90
2024/03/27 07:16:15;;;;;;;23.77;9.02;;;;;;;13.01;54.83;98614.06;4933189;28;100337;-85
2024/03/27 07:18:40;;;;;;;16.45;7.88;;;;;;;12.99;55.03;98611.50;4947503;28;96982;-84
2024/03/27 07:21:05;;;;;;;17.30;8.05;;;;;;;13.00;54.95;98617.59;4950202;28;96758;-86
2024/03/27 07:23:31;;;;;;;17.27;7.38;;;;;;;12.98;54.89;98615.03;4946591;28;100405;-87
2024/03/27 07:25:57;;;;;;;17.65;7.55;;;;;;;12.99;54.68;98618.50;4962366;28;100121;-86
2024/03/27 07:28:22;;;;;;;12.95;6.60;;;;;;;12.99;54.81;98619.34;4948347;28;97007;-86
2024/03/27 07:30:49;;;;;;;12.93;6.20;;;;;;;12.99;54.76;98616.72;4939445;28;96955;-87
2024/03/27 07:33:14;;;;;;;14.32;7.13;;;;;;;13.02;54.51;98626.25;4948128;28;100576;-86
2024/03/27 07:35:40;;;;;;;15.70;6.85;;;;;;;13.04;54.81;98633.13;4950152;28;97297;-86
2024/03/27 07:38:05;;;;;;;12.55;6.30;;;;;;;13.07;54.66;98646.13;4938318;28;97300;-86
2024/03/27 07:40:31;;;;;;;14.55;6.38;;;;;;;13.10;54.70;98647.78;4934176;28;97538;-86
2024/03/27 07:42:56;;;;;;;12.73;5.45;;;;;;;13.11;54.43;98650.34;4949516;28;100557;-85
2024/03/27 07:45:22;;;;;;;12.82;5.85;;;;;;;13.12;54.38;98641.59;4934725;28;100628;-86
2024/03/27 07:47:49;;;;;;;12.43;5.82;;;;;;;13.17;54.35;98656.28;4931759;28;97038;-85
2024/03/27 07:50:15;;;;;;;12.32;6.00;;;;;;;13.18;54.17;98648.38;4947081;28;96907;-85
2024/03/27 07:52:40;;;;;;;12.73;6.20;;;;;;;13.22;54.32;98651.75;4947917;28;100822;-85
2024/03/27 07:55:07;;;;;;;16.55;7.15;;;;;;;13.22;54.32;98657.84;4948828;28;97662;-85
2024/03/27 07:57:33;;;;;;;15.00;7.18;;;;;;;13.21;54.35;98660.50;4946998;28;96891;-85
2024/03/27 07:59:59;;;;;;;12.45;5.80;;;;;;;13.21;54.55;98661.38;4945898;28;96974;-85
2024/03/27 08:02:25;;;;;;;10.45;5.03;;;;;;;13.22;54.17;98675.31;4945384;28;101249;-85
2024/03/27 08:04:50;;;;;;;10.82;4.65;;;;;;;13.21;54.17;98679.72;4946212;28;97949;-85
2024/03/27 08:07:15;;;;;;;10.32;4.82;;;;;;;13.20;54.08;98677.13;4948344;28;96854;-85
2024/03/27 08:09:46;;;;;;;12.63;5.05;;;;;;;13.20;54.35;98688.44;4950122;28;97056;-85
2024/03/27 08:12:12;;;;;;;7.80;4.15;;;;;;;13.21;53.99;98691.91;4938106;28;100812;-85
2024/03/27 08:14:37;;;;;;;10.75;4.38;;;;;;;13.22;54.19;98691.88;4949658;28;97733;-86
2024/03/27 08:17:03;;;;;;;10.85;4.28;;;;;;;13.26;54.18;98687.38;4950473;28;96812;-85
2024/03/27 08:19:28;;;;;;;12.27;4.15;;;;;;;13.32;54.01;98679.38;4931724;28;96925;-85
2024/03/27 08:21:53;;;;;;;8.68;4.15;;;;;;;13.36;54.10;98682.75;4951911;28;100223;-85
2024/03/27 08:24:19;;;;;;;9.07;4.35;;;;;;;13.40;53.87;98676.50;4938888;28;100416;-85
2024/03/27 08:26:44;;;;;;;9.00;4.57;;;;;;;13.42;53.98;98674.69;4934405;28;96909;-86
2024/03/27 08:29:10;;;;;;;10.77;4.90;;;;;;;13.43;53.54;98685.09;4947883;28;96956;-85
2024/03/27 08:31:35;;;;;;;9.65;5.13;;;;;;;13.46;53.69;98669.31;4948583;28;98078;-85
2024/03/27 08:34:00;;;;;;;10.55;4.65;;;;;;;13.52;53.72;98663.00;4951874;28;97583;-85
2024/03/27 08:36:26;;;;;;;9.80;5.00;;;;;;;13.60;54.01;98660.09;4948066;28;96899;-85
2024/03/27 08:38:51;;;;;;;10.15;5.15;;;;;;;13.70;54.05;98672.81;4949007;28;96802;-85
2024/03/27 08:41:17;;;;;;;8.95;4.97;;;;;;;13.83;53.75;98657.53;4946602;28;97673;-85
2024/03/27 08:43:43;;;;;;;15.80;5.40;;;;;;;13.95;53.63;98671.94;4948029;28;101020;-85
2024/03/27 08:46:08;;;;;;;9.95;5.72;;;;;;;14.03;53.24;98679.56;4947997;28;96782;-85
2024/03/27 08:48:34;;;;;;;11.93;5.20;;;;;;;14.08;52.96;98670.63;4947821;28;96849;-85
2024/03/27 08:50:59;;;;;;;13.38;5.72;;;;;;;14.15;52.91;98671.22;4932517;28;100431;-85
2024/03/27 08:53:25;;;;;;;9.35;5.35;;;;;;;14.17;52.48;98679.91;4949158;28;96796;-85
2024/03/27 08:55:50;;;;;;;10.40;5.38;;;;;;;14.17;52.47;98673.78;4926208;28;97287;-85
2024/03/27 08:58:16;;;;;;;10.57;5.43;;;;;;;14.15;52.08;98676.47;4947640;28;96916;-85
2024/03/27 09:00:44;;;;;;;10.50;5.57;;;;;;;14.14;51.93;98673.94;4946897;28;97515;-85
2024/03/27 09:03:09;;;;;;;10.10;5.90;;;;;;;14.12;51.94;98684.47;4941721;28;100377;-85
2024/03/27 09:05:36;;;;;;;9.65;4.90;;;;;;;14.08;51.87;98688.97;4944920;28;96867;-85
2024/03/27 09:08:01;;;;;;;12.32;5.75;;;;;;;14.03;51.80;98693.50;4943768;28;96911;-85
2024/03/27 09:10:27;;;;;;;11.52;5.45;;;;;;;14.01;51.73;98697.97;4945337;28;100678;-85
2024/03/27 09:12:52;;;;;;;14.27;5.55;;;;;;;13.99;51.75;98702.41;4932644;28;100419;-86
2024/03/27 09:15:17;;;;;;;11.13;5.32;;;;;;;14.01;51.79;98703.22;4931310;28;96981;-85
2024/03/27 09:17:43;;;;;;;11.18;5.32;;;;;;;14.02;51.56;98702.28;4928290;28;96863;-85
2024/03/27 09:20:09;;;;;;;9.80;5.50;;;;;;;13.99;51.40;98710.28;4947158;28;97992;-85
2024/03/27 09:22:35;;;;;;;11.90;6.25;;;;;;;13.96;51.64;98706.91;4932524;28;100531;-86
2024/03/27 09:25:01;;;;;;;10.55;5.85;;;;;;;13.93;51.59;98714.88;4931243;28;97177;-85
2024/03/27 09:27:27;;;;;;;10.73;5.22;;;;;;;13.87;51.54;98722.03;4948206;28;97056;-85
2024/03/27 09:29:54;;;;;;;10.48;5.38;;;;;;;13.79;51.87;98726.66;4945013;28;97762;-85
2024/03/27 09:32:20;;;;;;;10.15;5.20;;;;;;;13.71;51.71;98729.56;4929629;28;100672;-85
2024/03/27 09:34:46;;;;;;;9.88;5.57;;;;;;;13.66;51.88;98747.19;4944619;28;96896;-85
2024/03/27 09:37:12;;;;;;;12.48;5.40;;;;;;;13.61;52.22;98754.34;4936216;28;96925;-85
2024/03/27 09:39:38;;;;;;;14.02;6.03;;;;;;;13.55;52.18;98765.03;4934056;28;100427;-85
2024/03/27 09:42:05;;;;;;;11.45;5.40;;;;;;;13.51;52.39;98763.41;4930741;28;100701;-85
2024/03/27 09:44:31;;;;;;;9.63;5.80;;;;;;;13.46;52.39;98768.81;4947050;28;96862;-85
2024/03/27 09:47:04;;;;;;;13.18;6.13;;;;;;;13.42;52.85;98767.22;4948800;28;97392;-88
2024/03/27 09:49:29;;;;;;;10.65;5.45;;;;;;;13.41;52.80;98747.16;4942141;28;98219;-85
2024/03/27 09:51:58;;;;;;;10.65;5.15;;;;;;;13.37;53.04;98753.41;4933241;28;100221;-85
2024/03/27 09:54:28;;;;;;;11.32;5.43;;;;;;;13.36;53.25;98753.44;4933936;28;96971;-85
2024/03/27 09:56:54;;;;;;;12.23;5.03;;;;;;;13.37;53.25;98753.41;4947193;28;96923;-85
2024/03/27 09:59:20;;;;;;;9.32;4.63;;;;;;;13.39;53.27;98753.38;4937200;28;100254;-88
2024/03/27 10:01:56;;;;;;;9.80;4.57;;;;;;;13.35;53.50;98755.22;4935808;28;100749;-88
2024/03/27 10:04:23;;;;;;;10.73;4.75;;;;;;;13.40;53.73;98745.44;4951879;28;96963;-88
2024/03/27 10:06:50;;;;;;;10.95;4.50;;;;;;;13.45;54.07;98746.13;4933689;28;96781;-87
2024/03/27 10:09:15;;;;;;;8.75;4.30;;;;;;;13.51;53.85;98735.47;4944499;28;97736;-87
2024/03/27 10:11:42;;;;;;;8.55;4.40;;;;;;;13.55;53.79;98741.47;4946213;28;100000;-88
2024/03/27 10:14:07;;;;;;;8.90;4.70;;;;;;;13.59;53.88;98743.06;4935367;28;96902;-88
2024/03/27 10:16:33;;;;;;;9.13;4.15;;;;;;;13.65;54.11;98752.47;4947252;28;96857;-88
2024/03/27 10:18:58;;;;;;;8.60;3.97;;;;;;;13.69;53.93;98756.72;4948792;28;99845;-87
2024/03/27 10:21:26;;;;;;;8.98;4.47;;;;;;;13.78;54.24;98760.78;4932679;28;100357;-88
2024/03/27 10:23:51;;;;;;;8.82;3.90;;;;;;;13.93;54.64;98775.16;4934245;28;97049;-89
2024/03/27 10:26:17;;;;;;;6.07;3.28;;;;;;;14.07;54.48;98776.38;4948055;28;97850;-88
2024/03/27 10:28:43;;;;;;;11.18;3.75;;;;;;;14.21;54.13;98781.13;4950136;28;99968;-87
2024/03/27 10:31:08;;;;;;;7.70;3.40;;;;;;;14.34;53.92;98778.09;4932260;28;99427;-88
2024/03/27 10:33:33;;;;;;;5.72;3.03;;;;;;;14.44;53.55;98782.09;4944149;28;96941;-87
2024/03/27 10:36:02;;;;;;;5.18;2.88;;;;;;;14.49;53.09;98772.25;4937842;28;96940;-89
2024/03/27 10:38:28;;;;;;;6.75;2.47;;;;;;;14.47;52.55;98779.34;4944636;28;100449;-88
2024/03/27 10:40:58;;;;;;;5.95;2.55;;;;;;;14.46;52.67;98782.88;4946227;28;97603;-89
2024/03/27 10:43:32;;;;;;;4.80;2.28;;;;;;;14.48;52.48;98784.53;4950103;28;97010;-88
2024/03/27 10:46:00;;;;;;;3.53;1.90;;;;;;;14.53;52.26;98786.13;4950565;28;97325;-89
2024/03/27 10:48:26;;;;;;;4.60;2.00;;;;;;;14.51;51.61;98780.97;4949356;28;98031;-88
2024/03/27 10:50:54;;;;;;;5.53;2.17;;;;;;;14.52;52.03;98785.28;4934430;28;100217;-88
2024/03/27 10:53:20;;;;;;;4.05;2.05;;;;;;;14.58;52.19;98781.59;4954006;28;96789;-88
2024/03/27 10:55:46;;;;;;;4.30;2.22;;;;;;;14.70;52.38;98789.03;4931599;28;97711;-88
2024/03/27 10:58:13;;;;;;;7.75;2.53;;;;;;;14.85;52.22;98782.34;4929877;28;101543;-89
2024/03/27 11:00:39;;;;;;;6.28;2.53;;;;;;;14.96;51.74;98779.31;4947943;28;97812;-87
2024/03/27 11:03:08;;;;;;;4.25;2.10;;;;;;;15.02;51.17;98779.91;4935045;28;96841;-90
2024/03/27 11:05:34;;;;;;;6.40;2.47;;;;;;;15.07;50.94;98778.91;4938995;28;96877;-89
2024/03/27 11:07:59;;;;;;;6.18;2.40;;;;;;;15.15;50.89;98784.69;4936809;28;99183;-89
2024/03/27 11:10:26;;;;;;;4.07;2.28;;;;;;;15.19;51.19;98781.06;4946817;28;100183;-88
2024/03/27 11:12:52;;;;;;;4.65;2.47;;;;;;;15.28;51.30;98791.19;4932129;28;96957;-89
2024/03/27 11:15:18;;;;;;;3.33;2.15;;;;;;;15.37;50.68;98779.47;4948488;28;97381;-88
2024/03/27 11:17:58;;;;;;;4.55;2.08;;;;;;;15.41;50.04;98781.03;4952122;28;97904;-88
2024/03/27 11:20:25;;;;;;;5.75;2.20;;;;;;;15.46;50.43;98778.25;4952412;28;100196;-89